Spanish Lake, Missouri
Current Conditions -  °F | °C
As of 4:15 AM on Saturday 20 Dec 2014 (Local Time) from KALN Reporting Station
Overcast Overcast  
Wind Chill:   Ceiling: 2800
Heat Index:   Visibility: 7mi
Dew Point: -2°   Wind: 3mph
Humidity: 82%   Direction: 110°ESE
Pressure: 30.26"   Gusts: NA
Location:  38.7995°N, 90.1891°W
Report Text: KALN 201015Z AUTO 11003KT 7SM OVC028 01/M02 A3026 RMK AO2 T00061021
Loading
Personal Weather Stations






























Interactive Weather Map New forecast layout! Learn more

10-Day Weather Forecast

Advertisements
Track Severe Weather on mobile